createdAt,value
2018-11-11T00:01:33.858Z,11.00
2018-11-11T00:04:08.234Z,10.33
2018-11-11T00:06:46.344Z,12.67
2018-11-11T00:09:18.265Z,11.33
2018-11-11T00:11:52.814Z,14.67
2018-11-11T00:14:29.230Z,14.00
2018-11-11T00:17:00.541Z,13.33
2018-11-11T00:19:39.233Z,12.67
2018-11-11T00:22:17.582Z,14.00
2018-11-11T00:24:50.556Z,12.00
2018-11-11T00:27:22.526Z,11.00
2018-11-11T00:29:57.288Z,12.00
2018-11-11T00:32:34.203Z,13.33
2018-11-11T00:35:07.271Z,12.00
2018-11-11T00:37:41.696Z,14.33
2018-11-11T00:40:15.250Z,15.67
2018-11-11T00:42:46.539Z,12.00
2018-11-11T00:45:24.165Z,11.67
2018-11-11T00:48:00.989Z,15.00
2018-11-11T00:50:33.193Z,14.00
2018-11-11T00:53:06.208Z,14.33
2018-11-11T00:55:43.909Z,17.00
2018-11-11T00:58:20.186Z,15.00
2018-11-11T01:00:54.706Z,17.00
2018-11-11T01:03:25.609Z,15.00
2018-11-11T01:05:59.235Z,16.00
2018-11-11T01:08:33.359Z,15.00
2018-11-11T01:11:10.776Z,14.33
2018-11-11T01:13:43.033Z,16.33
2018-11-11T01:16:18.124Z,14.00
2018-11-11T01:18:51.130Z,14.33
2018-11-11T01:21:25.819Z,14.00
2018-11-11T01:23:58.918Z,14.33
2018-11-11T01:26:31.172Z,12.67
2018-11-11T01:29:04.777Z,15.00
2018-11-11T01:31:40.749Z,12.67
2018-11-11T01:34:17.672Z,12.67
2018-11-11T01:36:54.000Z,12.67
2018-11-11T01:39:24.181Z,12.00
2018-11-11T01:41:57.756Z,14.67
2018-11-11T01:44:30.857Z,11.33
2018-11-11T01:47:03.385Z,13.00
2018-11-11T01:49:42.135Z,14.00
2018-11-11T01:52:14.852Z,12.67
2018-11-11T01:54:46.030Z,14.00
2018-11-11T01:57:19.288Z,12.67
2018-11-11T01:59:53.968Z,14.00
2018-11-11T02:02:27.124Z,12.00
2018-11-11T02:05:00.625Z,12.67
2018-11-11T02:07:34.224Z,12.00
2018-11-11T02:10:06.482Z,10.33
2018-11-11T02:12:39.097Z,12.00
2018-11-11T02:15:15.516Z,11.33
2018-11-11T02:17:47.350Z,9.67
2018-11-11T02:20:22.512Z,12.67
2018-11-11T02:22:56.721Z,11.00
2018-11-11T02:25:30.047Z,11.00
2018-11-11T02:28:02.731Z,11.00
2018-11-11T02:30:37.020Z,11.00
2018-11-11T02:33:12.598Z,11.00
2018-11-11T02:35:46.929Z,11.67
2018-11-11T02:38:23.540Z,9.00
2018-11-11T02:40:54.663Z,9.67
2018-11-11T02:43:27.418Z,11.00
2018-11-11T02:45:59.832Z,11.00
2018-11-11T02:48:30.802Z,9.00
2018-11-11T02:51:01.205Z,8.67
2018-11-11T02:53:37.044Z,10.67
2018-11-11T02:56:12.645Z,9.00
2018-11-11T02:58:46.166Z,9.00
2018-11-11T03:01:18.769Z,9.00
2018-11-11T03:03:55.323Z,9.33
2018-11-11T03:06:27.488Z,9.00
2018-11-11T03:09:05.079Z,8.33
2018-11-11T03:11:35.258Z,10.67
2018-11-11T03:14:10.512Z,10.33
2018-11-11T03:16:41.452Z,11.67
2018-11-11T03:19:21.162Z,11.67
2018-11-11T03:21:54.732Z,11.33
2018-11-11T03:24:30.163Z,10.33
2018-11-11T03:27:06.742Z,7.67
2018-11-11T03:29:46.952Z,11.00
2018-11-11T03:32:18.960Z,11.67
2018-11-11T03:34:52.961Z,12.67
2018-11-11T03:37:25.221Z,13.67
2018-11-11T03:39:55.933Z,12.00
2018-11-11T03:42:28.748Z,9.00
2018-11-11T03:44:59.432Z,12.00
2018-11-11T03:47:32.183Z,13.33
2018-11-11T03:50:15.348Z,14.67
2018-11-11T03:52:47.828Z,14.00
2018-11-11T03:55:21.799Z,12.67
2018-11-11T03:57:55.379Z,16.00
2018-11-11T04:00:29.576Z,14.33
2018-11-11T04:03:03.102Z,15.67
2018-11-11T04:05:44.560Z,13.67
2018-11-11T04:08:18.998Z,15.67
2018-11-11T04:10:50.319Z,14.67
2018-11-11T04:13:26.266Z,15.67
2018-11-11T04:16:05.511Z,12.00
2018-11-11T04:18:40.792Z,14.67
2018-11-11T04:21:16.954Z,17.00
2018-11-11T04:23:54.209Z,19.00
2018-11-11T04:26:33.601Z,17.00
2018-11-11T04:29:06.472Z,15.67
2018-11-11T04:31:40.509Z,15.00
2018-11-11T04:34:14.019Z,14.33
2018-11-11T04:36:51.441Z,17.00
2018-11-11T04:39:28.477Z,16.33
2018-11-11T04:42:02.604Z,14.33
2018-11-11T04:44:42.267Z,17.33
2018-11-11T04:47:16.006Z,15.67
2018-11-11T04:49:48.988Z,14.00
2018-11-11T04:52:24.177Z,15.67
2018-11-11T04:54:55.912Z,17.00
2018-11-11T04:57:34.032Z,16.67
2018-11-11T05:00:08.262Z,17.00
2018-11-11T05:02:41.736Z,14.33
2018-11-11T05:05:16.274Z,17.00
2018-11-11T05:07:50.364Z,14.67
2018-11-11T05:10:24.304Z,14.67
2018-11-11T05:12:54.808Z,17.00
2018-11-11T05:15:27.616Z,18.00
2018-11-11T05:18:03.172Z,16.00
2018-11-11T05:20:35.017Z,16.00
2018-11-11T05:23:08.200Z,15.33
2018-11-11T05:25:40.358Z,17.67
2018-11-11T05:28:12.646Z,14.00
2018-11-11T05:30:43.610Z,19.00
2018-11-11T05:33:16.204Z,18.67
2018-11-11T05:35:49.560Z,17.00
2018-11-11T05:38:22.345Z,16.00
2018-11-11T05:40:53.221Z,16.00
2018-11-11T05:43:26.061Z,16.00
2018-11-11T05:45:58.619Z,17.67
2018-11-11T05:48:30.764Z,14.00
2018-11-11T05:51:04.001Z,14.00
2018-11-11T05:53:37.774Z,16.00
2018-11-11T05:56:12.062Z,14.00
2018-11-11T05:58:43.496Z,16.33
2018-11-11T06:01:39.858Z,13.00
2018-11-11T06:04:13.646Z,16.67
2018-11-11T06:06:47.218Z,14.00
2018-11-11T06:09:20.471Z,15.33
2018-11-11T06:11:55.712Z,14.67
2018-11-11T06:14:29.324Z,13.33
2018-11-11T06:17:06.650Z,14.67
2018-11-11T06:19:38.817Z,14.67
2018-11-11T06:22:13.856Z,13.00
2018-11-11T06:24:45.037Z,13.00
2018-11-11T06:27:17.325Z,16.00
2018-11-11T06:29:51.633Z,11.00
2018-11-11T06:32:26.873Z,14.33
2018-11-11T06:34:58.557Z,13.33
2018-11-11T06:37:28.692Z,11.67
2018-11-11T06:40:03.180Z,11.00
2018-11-11T06:42:37.559Z,10.67
2018-11-11T06:45:16.634Z,9.00
2018-11-11T06:47:54.957Z,10.33
2018-11-11T06:50:31.297Z,11.00
2018-11-11T06:53:03.206Z,8.33
2018-11-11T06:55:37.305Z,9.00
2018-11-11T06:58:12.112Z,12.67
2018-11-11T07:00:43.782Z,9.00
2018-11-11T07:03:26.192Z,11.00
2018-11-11T07:06:01.189Z,9.00
2018-11-11T07:08:36.543Z,7.33
2018-11-11T07:11:12.090Z,6.00
2018-11-11T07:13:49.833Z,9.00
2018-11-11T07:16:23.982Z,9.00
2018-11-11T07:18:56.758Z,8.00
2018-11-11T07:21:30.824Z,7.33
2018-11-11T07:24:06.116Z,7.00
2018-11-11T07:26:39.052Z,9.00
2018-11-11T07:29:15.978Z,7.67
2018-11-11T07:31:49.999Z,6.33
2018-11-11T07:34:22.404Z,7.67
2018-11-11T07:36:54.458Z,7.33
2018-11-11T07:39:28.189Z,8.67
2018-11-11T07:42:03.558Z,7.67
2018-11-11T07:44:39.471Z,6.67
2018-11-11T07:47:12.104Z,7.67
2018-11-11T07:49:45.160Z,8.33
2018-11-11T07:52:18.237Z,6.67
2018-11-11T07:54:50.014Z,6.00
2018-11-11T07:57:23.840Z,7.00
2018-11-11T07:59:56.803Z,9.00
2018-11-11T08:02:29.405Z,10.00
2018-11-11T08:05:05.765Z,9.00
2018-11-11T08:07:39.667Z,7.00
2018-11-11T08:10:23.816Z,7.00
2018-11-11T08:12:57.511Z,6.00
2018-11-11T08:15:29.726Z,9.00
2018-11-11T08:18:07.373Z,7.67
2018-11-11T08:20:40.532Z,7.67
2018-11-11T08:23:13.583Z,9.00
2018-11-11T08:25:45.851Z,7.00
2018-11-11T08:28:19.528Z,8.33
2018-11-11T08:30:56.331Z,7.67
2018-11-11T08:33:31.988Z,7.67
2018-11-11T08:36:08.654Z,7.75
2018-11-11T08:38:46.253Z,6.00
2018-11-11T08:41:23.423Z,8.00
2018-11-11T08:43:57.996Z,7.33
2018-11-11T08:46:34.217Z,5.33
2018-11-11T08:49:10.423Z,5.33
2018-11-11T08:51:47.407Z,4.33
2018-11-11T08:54:25.180Z,3.33
2018-11-11T08:56:58.106Z,4.00
2018-11-11T08:59:40.813Z,3.33
2018-11-11T09:02:22.260Z,4.00
2018-11-11T09:04:56.334Z,4.33
2018-11-11T09:07:32.244Z,3.00
2018-11-11T09:10:09.150Z,4.00
2018-11-11T09:12:44.484Z,9.00
2018-11-11T09:15:22.690Z,4.17
2018-11-11T09:18:02.752Z,4.00
2018-11-11T09:20:43.256Z,4.00
2018-11-11T09:23:20.378Z,3.67
2018-11-11T09:26:04.449Z,4.00
2018-11-11T09:28:42.366Z,3.80
2018-11-11T09:31:16.995Z,4.00
2018-11-11T09:33:55.484Z,4.00
2018-11-11T09:36:34.002Z,5.67
2018-11-11T09:39:09.166Z,5.67
2018-11-11T09:41:42.302Z,4.00
2018-11-11T09:44:17.811Z,5.33
2018-11-11T09:46:52.225Z,4.00
2018-11-11T09:49:27.236Z,5.25
2018-11-11T09:52:01.417Z,6.67
2018-11-11T09:54:36.843Z,5.33
2018-11-11T09:57:12.984Z,5.33
2018-11-11T09:59:44.559Z,5.33
2018-11-11T10:02:23.429Z,4.00
2018-11-11T10:05:10.465Z,5.75
2018-11-11T10:07:58.287Z,4.00
2018-11-11T10:11:07.943Z,4.00
2018-11-11T10:13:57.844Z,4.00
2018-11-11T10:18:48.063Z,4.00
2018-11-11T10:22:01.093Z,4.00
2018-11-11T10:25:14.145Z,5.60
2018-11-11T10:29:58.040Z,4.40
2018-11-11T10:32:44.020Z,4.00
2018-11-11T10:35:31.155Z,3.67
2018-11-11T10:38:17.750Z,5.33
2018-11-11T10:41:01.634Z,5.00
2018-11-11T10:43:49.264Z,2.33
2018-11-11T10:46:40.665Z,3.67
2018-11-11T10:49:38.879Z,4.00
2018-11-11T10:52:15.574Z,3.67
2018-11-11T10:54:49.822Z,3.20
2018-11-11T10:57:30.931Z,3.20
2018-11-11T11:00:10.101Z,2.00
2018-11-11T11:02:54.691Z,2.40
2018-11-11T11:05:33.189Z,2.40
2018-11-11T11:08:11.201Z,2.00
2018-11-11T11:10:47.576Z,2.00
2018-11-11T11:13:22.448Z,2.00
2018-11-11T11:15:59.405Z,2.00
2018-11-11T11:18:33.597Z,1.00
2018-11-11T11:21:11.016Z,1.60
2018-11-11T11:23:49.462Z,2.00
2018-11-11T11:26:28.535Z,2.00
2018-11-11T11:29:09.208Z,1.00
2018-11-11T11:31:46.677Z,1.00
2018-11-11T11:34:26.345Z,1.00
2018-11-11T11:37:00.149Z,1.00
2018-11-11T11:39:41.549Z,1.80
2018-11-11T11:42:18.934Z,1.00
2018-11-11T11:44:55.349Z,0.40
2018-11-11T11:47:31.948Z,0.40
2018-11-11T11:50:09.330Z,1.40
2018-11-11T11:52:48.270Z,0.20
2018-11-11T11:55:27.434Z,1.00
2018-11-11T11:58:26.265Z,0.20
2018-11-11T12:01:04.381Z,1.00
2018-11-11T12:03:39.800Z,1.00
2018-11-11T12:06:15.710Z,0.40
2018-11-11T12:08:53.848Z,0.80
2018-11-11T12:11:27.272Z,1.00
2018-11-11T12:14:05.642Z,1.00
2018-11-11T12:16:41.395Z,1.00
2018-11-11T12:19:18.365Z,1.00
2018-11-11T12:21:52.802Z,1.00
2018-11-11T12:24:27.556Z,1.00
2018-11-11T12:27:02.969Z,1.00
2018-11-11T12:29:43.126Z,1.00
2018-11-11T12:32:21.005Z,1.00
2018-11-11T12:35:00.555Z,0.80
2018-11-11T12:37:37.965Z,1.00
2018-11-11T12:40:17.587Z,1.00
2018-11-11T12:42:54.235Z,1.00
2018-11-11T12:45:28.827Z,1.00
2018-11-11T12:48:02.313Z,0.80
2018-11-11T12:50:40.817Z,1.00
2018-11-11T12:53:19.352Z,1.00
2018-11-11T12:59:13.228Z,1.00
2018-11-11T13:01:52.780Z,2.00
2018-11-11T13:04:34.403Z,1.00
2018-11-11T13:07:12.464Z,1.00
2018-11-11T13:09:48.649Z,0.20
2018-11-11T13:12:28.619Z,1.00
2018-11-11T13:17:53.261Z,1.00
2018-11-11T13:20:34.598Z,1.00
2018-11-11T13:23:24.428Z,1.00
2018-11-11T13:26:01.177Z,1.40
2018-11-11T13:28:37.230Z,1.00
2018-11-11T13:31:11.960Z,1.00
2018-11-11T13:33:50.242Z,1.00
2018-11-11T13:36:33.875Z,1.00
2018-11-11T13:39:10.565Z,1.00
2018-11-11T13:41:47.427Z,1.00
2018-11-11T13:44:23.606Z,1.00
2018-11-11T13:46:58.460Z,1.00
2018-11-11T13:49:34.856Z,1.00
2018-11-11T13:52:10.587Z,1.60
2018-11-11T13:54:50.611Z,0.40
2018-11-11T13:57:29.723Z,0.80
2018-11-11T14:00:13.413Z,0.20
2018-11-11T14:02:59.363Z,1.00
2018-11-11T14:05:37.192Z,0.20
2018-11-11T14:08:11.277Z,1.00
2018-11-11T14:10:48.557Z,1.00
2018-11-11T14:13:24.427Z,1.00
2018-11-11T14:16:03.734Z,1.00
2018-11-11T14:18:40.211Z,0.00
2018-11-11T14:21:13.741Z,0.80
2018-11-11T14:23:51.271Z,1.00
2018-11-11T14:26:30.536Z,0.80
2018-11-11T14:29:05.541Z,1.00
2018-11-11T14:31:40.626Z,0.60
2018-11-11T14:34:18.488Z,0.00
2018-11-11T14:36:56.238Z,0.80
2018-11-11T14:39:32.249Z,1.00
2018-11-11T14:42:20.801Z,0.00
2018-11-11T14:44:54.048Z,1.00
2018-11-11T14:47:31.424Z,1.00
2018-11-11T14:50:07.914Z,0.80
2018-11-11T14:52:41.188Z,1.00
2018-11-11T14:55:22.076Z,1.00
2018-11-11T14:57:59.542Z,0.00
2018-11-11T15:00:40.658Z,0.00
2018-11-11T15:06:12.422Z,4.00
2018-11-11T15:08:53.997Z,1.80
2018-11-11T15:11:30.828Z,1.00
2018-11-11T15:14:12.471Z,1.00
2018-11-11T15:16:48.367Z,1.00
2018-11-11T15:19:25.161Z,0.60
2018-11-11T15:22:01.657Z,0.60
2018-11-11T15:24:37.057Z,2.00
2018-11-11T15:27:40.707Z,1.80
2018-11-11T15:30:29.503Z,0.40
2018-11-11T15:33:05.845Z,0.40
2018-11-11T15:36:46.468Z,1.00
2018-11-11T15:39:24.766Z,0.60
2018-11-11T15:42:03.044Z,1.00
2018-11-11T15:44:40.993Z,1.00
2018-11-11T15:47:20.516Z,2.00
2018-11-11T15:50:01.198Z,5.67
2018-11-11T15:52:38.842Z,1.60
2018-11-11T15:55:18.517Z,2.00
2018-11-11T15:57:57.954Z,0.33
2018-11-11T16:00:44.690Z,4.00
2018-11-11T16:03:20.379Z,5.67
2018-11-11T16:05:57.006Z,2.00
2018-11-11T16:08:38.580Z,2.00
2018-11-11T16:13:53.610Z,2.00
2018-11-11T16:16:36.524Z,2.00
2018-11-11T16:19:17.334Z,1.20
2018-11-11T16:21:54.263Z,2.00
2018-11-11T16:24:30.559Z,2.00
2018-11-11T16:27:10.945Z,2.00
2018-11-11T16:29:57.591Z,5.00
2018-11-11T16:32:32.316Z,1.00
2018-11-11T16:35:13.285Z,1.67
2018-11-11T16:37:51.132Z,7.00
2018-11-11T16:40:26.572Z,4.67
2018-11-11T16:43:01.497Z,12.33
2018-11-11T16:45:44.134Z,7.67
2018-11-11T16:48:16.557Z,8.00
2018-11-11T16:50:52.289Z,4.00
2018-11-11T16:53:27.889Z,5.00
2018-11-11T16:56:01.545Z,5.00
2018-11-11T16:58:37.393Z,2.00
2018-11-11T17:01:17.811Z,2.00
2018-11-11T17:03:52.308Z,1.00
2018-11-11T17:06:31.219Z,1.00
2018-11-11T17:09:07.561Z,0.60
2018-11-11T17:11:42.288Z,1.00
2018-11-11T17:14:18.620Z,1.60
2018-11-11T17:16:59.458Z,1.00
2018-11-11T17:19:37.978Z,0.40
2018-11-11T17:22:18.808Z,1.00
2018-11-11T17:24:54.795Z,2.00
2018-11-11T17:27:38.581Z,2.00
2018-11-11T17:30:19.267Z,1.00
2018-11-11T17:32:58.307Z,1.00
2018-11-11T17:35:34.585Z,1.00
2018-11-11T17:38:12.204Z,1.40
2018-11-11T17:40:48.521Z,1.00
2018-11-11T17:43:25.752Z,1.20
2018-11-11T17:46:04.385Z,1.80
2018-11-11T17:51:30.326Z,5.00
2018-11-11T17:54:07.034Z,2.33
2018-11-11T17:59:38.607Z,2.00
2018-11-11T18:02:37.642Z,3.33
2018-11-11T18:05:24.857Z,2.00
2018-11-11T18:08:13.015Z,4.00
2018-11-11T18:10:52.247Z,4.00
2018-11-11T18:13:32.130Z,4.00
2018-11-11T18:16:14.312Z,4.00
2018-11-11T18:18:53.164Z,4.67
2018-11-11T18:21:32.260Z,6.00
2018-11-11T18:24:19.002Z,5.00
2018-11-11T18:26:57.212Z,7.00
2018-11-11T18:32:16.501Z,8.67
2018-11-11T18:34:53.049Z,7.00
2018-11-11T18:37:33.062Z,7.00
2018-11-11T18:40:11.797Z,8.33
2018-11-11T18:42:53.342Z,9.00
2018-11-11T18:45:30.598Z,7.00
2018-11-11T18:48:06.426Z,5.67
2018-11-11T18:50:42.318Z,11.33
2018-11-11T18:53:18.724Z,9.33
2018-11-11T18:59:05.435Z,7.00
2018-11-11T19:01:41.833Z,9.33
2018-11-11T19:04:17.187Z,8.33
2018-11-11T19:07:01.524Z,7.00
2018-11-11T19:09:43.650Z,5.25
2018-11-11T19:12:19.676Z,5.67
2018-11-11T19:14:59.303Z,6.00
2018-11-11T19:17:39.585Z,7.00
2018-11-11T19:20:15.605Z,5.33
2018-11-11T19:22:50.635Z,4.33
2018-11-11T19:25:31.123Z,5.40
2018-11-11T19:28:07.463Z,4.60
2018-11-11T19:30:43.363Z,4.75
2018-11-11T19:33:19.629Z,5.40
2018-11-11T19:35:56.917Z,4.00
2018-11-11T19:38:31.485Z,3.80
2018-11-11T19:41:09.708Z,5.33
2018-11-11T19:43:50.487Z,9.00
2018-11-11T19:46:27.348Z,8.00
2018-11-11T19:49:08.245Z,4.00
2018-11-11T19:51:42.259Z,4.80
2018-11-11T19:54:16.670Z,3.20
2018-11-11T19:56:56.523Z,3.40
2018-11-11T19:59:35.686Z,3.60
2018-11-11T20:02:17.281Z,4.00
2018-11-11T20:04:51.695Z,2.20
2018-11-11T20:07:36.487Z,7.67
2018-11-11T20:10:15.823Z,7.00
2018-11-11T20:12:51.879Z,6.33
2018-11-11T20:15:32.872Z,5.00
2018-11-11T20:18:07.672Z,5.67
2018-11-11T20:20:50.488Z,4.40
2018-11-11T20:23:29.744Z,4.00
2018-11-11T20:26:08.033Z,3.40
2018-11-11T20:28:48.216Z,3.20
2018-11-11T20:31:34.813Z,6.00
2018-11-11T20:34:12.268Z,4.00
2018-11-11T20:36:47.653Z,4.00
2018-11-11T20:39:21.669Z,2.33
2018-11-11T20:41:55.294Z,4.00
2018-11-11T20:44:39.101Z,4.40
2018-11-11T20:47:11.881Z,3.80
2018-11-11T20:49:53.153Z,3.80
2018-11-11T20:52:31.413Z,4.00
2018-11-11T20:55:08.782Z,4.40
2018-11-11T20:57:41.653Z,3.40
2018-11-11T21:00:21.368Z,4.00
2018-11-11T21:02:53.846Z,4.20
2018-11-11T21:05:30.192Z,5.20
2018-11-11T21:08:11.188Z,2.00
2018-11-11T21:10:57.374Z,4.40
2018-11-11T21:13:38.727Z,7.33
2018-11-11T21:16:14.257Z,4.00
2018-11-11T21:21:50.256Z,3.00
2018-11-11T21:24:29.921Z,3.60
2018-11-11T21:27:10.056Z,4.00
2018-11-11T21:29:51.118Z,4.67
2018-11-11T21:32:26.730Z,2.33
2018-11-11T21:35:06.238Z,3.60
2018-11-11T21:37:52.604Z,3.00
2018-11-11T21:40:28.079Z,3.00
2018-11-11T21:43:03.615Z,3.33
2018-11-11T21:45:41.287Z,3.20
2018-11-11T21:48:14.643Z,4.00
2018-11-11T21:50:53.801Z,3.20
2018-11-11T21:53:45.248Z,3.40
2018-11-11T21:59:15.321Z,3.40
2018-11-11T22:01:55.953Z,3.00
2018-11-11T22:04:33.651Z,3.00
2018-11-11T22:07:09.216Z,3.00
2018-11-11T22:09:51.687Z,3.40
2018-11-11T22:12:27.687Z,3.80
2018-11-11T22:18:07.753Z,4.00
2018-11-11T22:20:43.461Z,3.60
2018-11-11T22:23:21.499Z,4.00
2018-11-11T22:25:59.828Z,4.00
2018-11-11T22:28:41.881Z,3.00
2018-11-11T22:31:19.315Z,3.00
2018-11-11T22:33:55.212Z,4.00
2018-11-11T22:36:29.497Z,3.40
2018-11-11T22:39:03.858Z,4.67
2018-11-11T22:41:38.937Z,4.00
2018-11-11T22:44:14.138Z,4.00
2018-11-11T22:46:48.798Z,4.00
2018-11-11T22:49:25.367Z,4.00
2018-11-11T22:52:02.278Z,4.00
2018-11-11T22:54:37.792Z,6.00
2018-11-11T22:57:15.322Z,5.50
2018-11-11T22:59:51.326Z,4.00
2018-11-11T23:02:27.342Z,3.00
2018-11-11T23:05:04.426Z,4.00
2018-11-11T23:07:42.836Z,4.00
2018-11-11T23:10:15.084Z,4.67
2018-11-11T23:12:58.046Z,4.00
2018-11-11T23:15:32.920Z,4.00
2018-11-11T23:18:11.436Z,4.00
2018-11-11T23:20:49.953Z,4.00
2018-11-11T23:23:27.513Z,4.00
2018-11-11T23:26:03.755Z,6.00
2018-11-11T23:28:40.195Z,3.00
2018-11-11T23:31:15.857Z,6.00
2018-11-11T23:33:50.440Z,3.67
2018-11-11T23:36:29.798Z,6.00
2018-11-11T23:39:09.164Z,4.80
2018-11-11T23:41:48.223Z,4.00
2018-11-11T23:44:24.632Z,5.33
2018-11-11T23:46:58.835Z,4.00
2018-11-11T23:49:42.261Z,5.20
2018-11-11T23:52:22.062Z,5.20
2018-11-11T23:55:02.057Z,4.00
2018-11-11T23:57:36.897Z,4.00
